createdAt,value
2024-01-26T00:00:55.151Z,32.90
2024-01-26T00:03:22.303Z,32.10
2024-01-26T00:05:49.490Z,32.15
2024-01-26T00:08:16.578Z,33.83
2024-01-26T00:10:43.721Z,32.67
2024-01-26T00:13:11.675Z,32.40
2024-01-26T00:15:38.909Z,33.17
2024-01-26T00:18:06.024Z,32.60
2024-01-26T00:20:33.006Z,32.35
2024-01-26T00:23:00.054Z,31.60
2024-01-26T00:25:27.095Z,28.95
2024-01-26T00:27:54.231Z,31.08
2024-01-26T00:30:21.395Z,28.83
2024-01-26T00:32:48.448Z,29.73
2024-01-26T00:35:16.782Z,28.52
2024-01-26T00:37:43.733Z,27.15
2024-01-26T00:40:12.250Z,27.25
2024-01-26T00:42:39.312Z,29.15
2024-01-26T00:45:06.910Z,27.67
2024-01-26T00:47:34.724Z,26.48
2024-01-26T00:50:02.219Z,26.75
2024-01-26T00:52:29.282Z,26.88
2024-01-26T00:54:56.468Z,25.17
2024-01-26T00:57:23.807Z,26.42
2024-01-26T00:59:50.737Z,25.10
2024-01-26T01:02:17.850Z,25.45
2024-01-26T01:04:44.895Z,25.45
2024-01-26T01:07:11.917Z,25.40
2024-01-26T01:09:41.497Z,24.60
2024-01-26T01:12:08.648Z,23.40
2024-01-26T01:14:38.201Z,25.48
2024-01-26T01:17:06.149Z,26.15
2024-01-26T01:19:33.196Z,24.90
2024-01-26T01:22:00.199Z,22.88
2024-01-26T01:24:27.232Z,24.40
2024-01-26T01:26:54.229Z,23.23
2024-01-26T01:29:21.264Z,23.02
2024-01-26T01:31:48.264Z,23.73
2024-01-26T01:34:15.571Z,22.63
2024-01-26T01:36:42.661Z,22.77
2024-01-26T01:39:09.685Z,23.58
2024-01-26T01:41:36.751Z,22.60
2024-01-26T01:44:04.661Z,22.60
2024-01-26T01:46:32.235Z,23.40
2024-01-26T01:48:59.596Z,24.60
2024-01-26T01:51:27.583Z,22.30
2024-01-26T01:53:55.690Z,21.17
2024-01-26T01:56:24.713Z,21.55
2024-01-26T01:58:53.163Z,22.02
2024-01-26T02:01:20.349Z,23.15
2024-01-26T02:03:47.768Z,19.88
2024-01-26T02:06:14.967Z,18.42
2024-01-26T02:08:42.055Z,19.00
2024-01-26T02:11:09.047Z,19.42
2024-01-26T02:13:36.080Z,19.63
2024-01-26T02:16:03.112Z,18.63
2024-01-26T02:18:30.165Z,20.85
2024-01-26T02:20:57.207Z,18.02
2024-01-26T02:23:25.448Z,19.17
2024-01-26T02:25:52.657Z,19.95
2024-01-26T02:28:20.001Z,21.65
2024-01-26T02:30:47.152Z,20.40
2024-01-26T02:33:14.413Z,20.75
2024-01-26T02:35:41.800Z,21.27
2024-01-26T02:38:08.837Z,19.70
2024-01-26T02:40:35.820Z,21.00
2024-01-26T02:43:02.811Z,22.27
2024-01-26T02:45:29.792Z,20.42
2024-01-26T02:47:57.949Z,22.23
2024-01-26T02:50:25.393Z,19.27
2024-01-26T02:52:52.362Z,20.75
2024-01-26T02:55:19.343Z,21.48
2024-01-26T02:57:46.342Z,18.25
2024-01-26T03:00:14.183Z,21.35
2024-01-26T03:02:41.286Z,20.02
2024-01-26T03:05:08.847Z,21.38
2024-01-26T03:07:35.776Z,20.73
2024-01-26T03:10:02.825Z,19.20
2024-01-26T03:12:29.864Z,18.83
2024-01-26T03:14:57.013Z,21.25
2024-01-26T03:17:23.994Z,19.67
2024-01-26T03:19:50.918Z,19.23
2024-01-26T03:22:17.860Z,19.38
2024-01-26T03:24:46.159Z,17.88
2024-01-26T03:27:13.152Z,18.15
2024-01-26T03:29:40.340Z,16.75
2024-01-26T03:32:07.622Z,17.45
2024-01-26T03:34:34.682Z,16.05
2024-01-26T03:37:01.652Z,15.85
2024-01-26T03:39:28.636Z,15.15
2024-01-26T03:41:55.697Z,13.25
2024-01-26T03:44:23.124Z,14.48
2024-01-26T03:46:50.179Z,12.63
2024-01-26T03:49:17.133Z,13.32
2024-01-26T03:51:44.072Z,12.95
2024-01-26T03:54:11.295Z,12.48
2024-01-26T03:56:38.506Z,11.77
2024-01-26T03:59:05.542Z,12.13
2024-01-26T04:01:32.583Z,11.75
2024-01-26T04:03:59.631Z,12.27
2024-01-26T04:06:26.764Z,12.25
2024-01-26T04:08:56.073Z,12.43
2024-01-26T04:11:23.522Z,11.00
2024-01-26T04:13:50.451Z,13.18
2024-01-26T04:16:17.513Z,11.52
2024-01-26T04:18:45.394Z,11.30
2024-01-26T04:21:12.565Z,11.30
2024-01-26T04:23:39.756Z,10.38
2024-01-26T04:26:07.911Z,10.13
2024-01-26T04:28:34.940Z,10.25
2024-01-26T04:31:02.179Z,9.93
2024-01-26T04:33:29.349Z,11.70
2024-01-26T04:35:56.526Z,9.75
2024-01-26T04:38:23.502Z,9.52
2024-01-26T04:40:50.569Z,7.75
2024-01-26T04:43:17.558Z,8.95
2024-01-26T04:45:44.568Z,7.63
2024-01-26T04:48:11.735Z,8.50
2024-01-26T04:50:38.889Z,9.27
2024-01-26T04:53:07.006Z,8.70
2024-01-26T04:55:34.171Z,8.18
2024-01-26T04:58:02.742Z,9.07
2024-01-26T05:00:29.733Z,9.13
2024-01-26T05:02:56.920Z,8.18
2024-01-26T05:05:23.903Z,7.40
2024-01-26T05:07:51.136Z,8.27
2024-01-26T05:10:18.104Z,7.93
2024-01-26T05:12:45.079Z,8.23
2024-01-26T05:15:13.010Z,8.43
2024-01-26T05:17:40.487Z,7.88
2024-01-26T05:20:08.372Z,8.32
2024-01-26T05:22:35.733Z,8.75
2024-01-26T05:25:02.839Z,7.22
2024-01-26T05:27:30.398Z,8.52
2024-01-26T05:29:57.622Z,8.57
2024-01-26T05:32:24.771Z,7.85
2024-01-26T05:34:51.794Z,7.18
2024-01-26T05:37:18.880Z,7.68
2024-01-26T05:39:45.869Z,9.55
2024-01-26T05:42:13.040Z,8.52
2024-01-26T05:44:40.135Z,8.27
2024-01-26T05:47:07.282Z,9.23
2024-01-26T05:49:35.123Z,10.15
2024-01-26T05:52:02.440Z,8.63
2024-01-26T05:54:29.450Z,9.43
2024-01-26T05:56:56.475Z,9.38
2024-01-26T05:59:23.581Z,9.25
2024-01-26T06:01:50.520Z,9.45
2024-01-26T06:04:17.530Z,10.10
2024-01-26T06:06:44.731Z,8.55
2024-01-26T06:09:11.830Z,8.82
2024-01-26T06:11:43.191Z,8.70
2024-01-26T06:14:10.475Z,9.73
2024-01-26T06:16:37.494Z,10.32
2024-01-26T06:19:05.504Z,9.30
2024-01-26T06:21:32.914Z,10.07
2024-01-26T06:24:00.739Z,9.23
2024-01-26T06:26:27.953Z,10.55
2024-01-26T06:28:54.971Z,9.93
2024-01-26T06:31:28.714Z,10.07
2024-01-26T06:33:56.130Z,11.10
2024-01-26T06:36:23.307Z,9.68
2024-01-26T06:38:50.352Z,9.68
2024-01-26T06:41:17.536Z,8.13
2024-01-26T06:43:51.919Z,8.10
2024-01-26T06:46:23.857Z,8.23
2024-01-26T06:48:52.111Z,8.43
2024-01-26T06:51:20.326Z,8.40
2024-01-26T06:53:47.501Z,8.68
2024-01-26T06:56:14.661Z,7.93
2024-01-26T06:58:41.841Z,9.68
2024-01-26T07:01:09.329Z,8.65
2024-01-26T07:03:36.486Z,8.10
2024-01-26T07:06:04.103Z,6.95
2024-01-26T07:08:31.152Z,7.38
2024-01-26T07:10:58.264Z,7.40
2024-01-26T07:13:25.548Z,7.63
2024-01-26T07:15:52.512Z,7.78
2024-01-26T07:18:19.799Z,6.40
2024-01-26T07:20:47.453Z,7.35
2024-01-26T07:23:14.450Z,6.28
2024-01-26T07:25:41.475Z,6.18
2024-01-26T07:28:08.887Z,6.57
2024-01-26T07:30:36.053Z,7.80
2024-01-26T07:33:03.530Z,6.95
2024-01-26T07:35:30.833Z,8.50
2024-01-26T07:37:57.872Z,7.70
2024-01-26T07:40:25.230Z,6.70
2024-01-26T07:42:52.914Z,8.20
2024-01-26T07:45:20.557Z,7.75
2024-01-26T07:47:51.640Z,7.57
2024-01-26T07:50:19.311Z,6.53
2024-01-26T07:52:46.732Z,7.60
2024-01-26T07:55:14.218Z,7.97
2024-01-26T07:57:42.116Z,7.22
2024-01-26T08:00:11.576Z,8.30
2024-01-26T08:02:39.415Z,8.13
2024-01-26T08:05:07.634Z,7.43
2024-01-26T08:07:34.937Z,7.90
2024-01-26T08:10:02.896Z,7.55
2024-01-26T08:12:42.900Z,6.63
2024-01-26T08:15:13.733Z,8.10
2024-01-26T08:17:42.904Z,8.10
2024-01-26T08:20:12.837Z,8.40
2024-01-26T08:22:41.078Z,7.68
2024-01-26T08:25:09.782Z,7.50
2024-01-26T08:27:39.308Z,6.68
2024-01-26T08:30:07.949Z,8.50
2024-01-26T08:32:35.715Z,8.02
2024-01-26T08:35:07.187Z,6.75
2024-01-26T08:37:38.580Z,7.93
2024-01-26T08:40:07.955Z,8.13
2024-01-26T08:42:35.458Z,9.27
2024-01-26T08:45:05.145Z,10.13
2024-01-26T08:47:35.819Z,10.13
2024-01-26T08:50:04.229Z,10.13
2024-01-26T08:52:32.049Z,10.85
2024-01-26T08:54:59.538Z,10.27
2024-01-26T08:57:26.824Z,9.85
2024-01-26T08:59:54.378Z,11.40
2024-01-26T09:02:21.899Z,10.30
2024-01-26T09:04:49.500Z,10.15
2024-01-26T09:07:19.472Z,9.65
2024-01-26T09:09:46.709Z,11.10
2024-01-26T09:12:13.910Z,10.38
2024-01-26T09:14:41.116Z,9.55
2024-01-26T09:17:09.655Z,8.43
2024-01-26T09:19:36.753Z,7.95
2024-01-26T09:22:04.567Z,6.75
2024-01-26T09:24:31.546Z,5.53
2024-01-26T09:26:59.076Z,5.50
2024-01-26T09:29:27.716Z,3.15
2024-01-26T09:31:58.118Z,3.42
2024-01-26T09:34:25.550Z,2.33
2024-01-26T09:36:55.686Z,2.40
2024-01-26T09:39:24.454Z,2.22
2024-01-26T09:41:52.041Z,2.10
2024-01-26T09:44:19.192Z,1.33
2024-01-26T09:46:46.621Z,1.60
2024-01-26T09:49:14.621Z,0.93
2024-01-26T09:51:45.400Z,0.40
2024-01-26T09:54:14.078Z,0.73
2024-01-26T09:56:43.162Z,1.30
2024-01-26T09:59:12.910Z,0.40
2024-01-26T10:01:45.130Z,0.40
2024-01-26T10:04:12.580Z,0.25
2024-01-26T10:06:40.599Z,2.20
2024-01-26T10:09:10.163Z,0.90
2024-01-26T10:11:37.543Z,0.80
2024-01-26T10:14:04.655Z,0.75
2024-01-26T10:16:31.777Z,0.70
2024-01-26T10:18:59.075Z,0.50
2024-01-26T10:21:26.672Z,0.60
2024-01-26T10:23:54.351Z,0.98
2024-01-26T10:26:21.648Z,0.68
2024-01-26T10:28:49.694Z,1.08
2024-01-26T10:31:17.261Z,0.60
2024-01-26T10:33:47.158Z,1.00
2024-01-26T10:36:15.741Z,0.73
2024-01-26T10:38:47.115Z,0.75
2024-01-26T10:41:20.696Z,0.90
2024-01-26T10:43:52.734Z,1.83
2024-01-26T10:46:20.851Z,1.10
2024-01-26T10:48:48.849Z,1.50
2024-01-26T10:51:18.812Z,1.35
2024-01-26T10:53:49.944Z,1.88
2024-01-26T10:56:17.298Z,1.17
2024-01-26T10:58:44.376Z,0.98
2024-01-26T11:01:13.029Z,1.08
2024-01-26T11:03:40.133Z,1.80
2024-01-26T11:06:10.011Z,1.40
2024-01-26T11:08:37.462Z,1.75
2024-01-26T11:11:04.840Z,1.92
2024-01-26T11:13:38.753Z,1.48
2024-01-26T11:16:07.457Z,1.10
2024-01-26T11:18:38.754Z,2.35
2024-01-26T11:21:06.158Z,2.20
2024-01-26T11:23:43.117Z,2.75
2024-01-26T11:26:15.677Z,1.80
2024-01-26T11:28:44.031Z,2.42
2024-01-26T11:31:12.786Z,1.77
2024-01-26T11:33:41.136Z,1.42
2024-01-26T11:36:13.211Z,0.82
2024-01-26T11:38:41.890Z,1.38
2024-01-26T11:41:08.990Z,1.63
2024-01-26T11:43:45.731Z,1.67
2024-01-26T11:46:14.167Z,1.83
2024-01-26T11:48:44.956Z,2.35
2024-01-26T11:51:13.489Z,1.60
2024-01-26T11:53:41.756Z,1.67
2024-01-26T11:56:13.082Z,1.90
2024-01-26T11:58:40.958Z,1.23
2024-01-26T12:01:08.462Z,1.30
2024-01-26T12:03:37.019Z,1.30
2024-01-26T12:06:05.300Z,2.72
2024-01-26T12:17:27.671Z,1.73
2024-01-26T12:19:56.034Z,1.70
2024-01-26T12:22:23.163Z,1.95
2024-01-26T12:24:51.383Z,1.75
2024-01-26T12:27:18.463Z,1.50
2024-01-26T12:29:48.601Z,2.17
2024-01-26T12:32:15.728Z,3.58
2024-01-26T12:34:43.217Z,1.98
2024-01-26T12:37:13.723Z,2.53
2024-01-26T12:39:40.997Z,2.80
2024-01-26T12:42:08.025Z,2.90
2024-01-26T12:44:37.708Z,1.70
2024-01-26T12:47:04.989Z,1.98
2024-01-26T12:49:34.623Z,2.78
2024-01-26T12:52:01.946Z,2.10
2024-01-26T12:54:28.958Z,1.48
2024-01-26T12:56:56.021Z,1.50
2024-01-26T12:59:23.301Z,1.98
2024-01-26T13:01:51.022Z,2.13
2024-01-26T13:04:18.917Z,1.45
2024-01-26T13:06:46.910Z,1.55
2024-01-26T13:09:16.519Z,2.35
2024-01-26T13:11:44.530Z,1.35
2024-01-26T13:14:12.822Z,1.55
2024-01-26T13:16:41.920Z,2.75
2024-01-26T13:19:09.929Z,2.20
2024-01-26T13:21:37.868Z,1.90
2024-01-26T13:24:05.961Z,0.98
2024-01-26T13:26:33.184Z,2.60
2024-01-26T13:29:01.202Z,0.98
2024-01-26T13:31:29.950Z,2.45
2024-01-26T13:33:57.850Z,1.77
2024-01-26T13:36:27.111Z,2.55
2024-01-26T13:38:55.428Z,1.30
2024-01-26T13:41:22.960Z,1.52
2024-01-26T13:43:50.460Z,2.10
2024-01-26T13:46:19.027Z,1.38
2024-01-26T13:48:46.478Z,2.45
2024-01-26T13:51:13.932Z,3.67
2024-01-26T13:53:41.728Z,1.75
2024-01-26T13:56:10.886Z,2.63
2024-01-26T13:58:38.366Z,1.70
2024-01-26T14:01:06.145Z,1.45
2024-01-26T14:03:43.639Z,3.20
2024-01-26T14:06:12.741Z,2.38
2024-01-26T14:08:40.567Z,2.50
2024-01-26T14:11:07.909Z,2.13
2024-01-26T14:13:36.147Z,1.70
2024-01-26T14:16:04.692Z,1.98
2024-01-26T14:18:32.009Z,2.63
2024-01-26T14:21:01.839Z,2.00
2024-01-26T14:23:32.263Z,1.73
2024-01-26T14:26:01.720Z,1.98
2024-01-26T14:28:29.270Z,1.17
2024-01-26T14:30:56.643Z,1.98
2024-01-26T14:33:23.984Z,1.63
2024-01-26T14:35:52.693Z,1.73
2024-01-26T14:38:20.470Z,2.97
2024-01-26T14:40:47.919Z,1.75
2024-01-26T14:43:15.560Z,1.83
2024-01-26T14:45:42.974Z,2.05
2024-01-26T14:48:10.771Z,1.77
2024-01-26T14:50:38.208Z,2.55
2024-01-26T14:53:06.203Z,1.63
2024-01-26T14:55:35.750Z,1.42
2024-01-26T14:58:03.544Z,1.38
2024-01-26T15:00:31.291Z,1.52
2024-01-26T15:03:00.134Z,2.55
2024-01-26T15:05:27.659Z,1.67
2024-01-26T15:07:55.832Z,4.68
2024-01-26T15:10:23.572Z,1.00
2024-01-26T15:12:51.106Z,1.08
2024-01-26T15:15:20.064Z,1.83
2024-01-26T15:17:51.760Z,2.45
2024-01-26T15:20:19.635Z,2.20
2024-01-26T15:22:50.263Z,1.60
2024-01-26T15:25:18.477Z,1.70
2024-01-26T15:27:45.960Z,1.77
2024-01-26T15:30:16.533Z,1.75
2024-01-26T15:32:45.722Z,1.95
2024-01-26T15:35:14.500Z,2.25
2024-01-26T15:37:43.096Z,2.42
2024-01-26T15:40:15.855Z,1.10
2024-01-26T15:42:44.117Z,1.38
2024-01-26T15:45:15.428Z,3.63
2024-01-26T15:47:43.828Z,1.52
2024-01-26T15:50:12.638Z,1.42
2024-01-26T15:52:45.820Z,1.52
2024-01-26T15:55:15.540Z,1.70
2024-01-26T15:57:43.849Z,1.75
2024-01-26T16:00:13.468Z,1.80
2024-01-26T16:02:41.383Z,1.42
2024-01-26T16:05:10.020Z,2.83
2024-01-26T16:07:38.145Z,1.67
2024-01-26T16:10:05.901Z,3.70
2024-01-26T16:12:36.227Z,2.20
2024-01-26T16:15:10.545Z,2.30
2024-01-26T16:17:37.911Z,1.65
2024-01-26T16:20:05.876Z,2.00
2024-01-26T16:22:32.832Z,3.47
2024-01-26T16:24:59.885Z,1.92
2024-01-26T16:27:26.928Z,2.45
2024-01-26T16:29:54.188Z,3.83
2024-01-26T16:32:22.546Z,2.58
2024-01-26T16:34:49.891Z,2.45
2024-01-26T16:37:17.224Z,2.17
2024-01-26T16:39:44.459Z,3.28
2024-01-26T16:42:12.165Z,2.33
2024-01-26T16:44:39.270Z,2.33
2024-01-26T16:47:06.542Z,1.67
2024-01-26T16:49:34.151Z,2.40
2024-01-26T16:52:04.602Z,1.92
2024-01-26T16:54:32.304Z,1.95
2024-01-26T16:56:59.862Z,2.97
2024-01-26T16:59:27.272Z,2.38
2024-01-26T17:01:54.729Z,2.65
2024-01-26T17:04:25.279Z,2.25
2024-01-26T17:06:53.120Z,2.42
2024-01-26T17:09:20.421Z,2.50
2024-01-26T17:11:47.985Z,2.60
2024-01-26T17:14:17.104Z,2.80
2024-01-26T17:16:44.224Z,2.58
2024-01-26T17:19:11.441Z,2.10
2024-01-26T17:21:40.806Z,2.65
2024-01-26T17:24:09.112Z,2.83
2024-01-26T17:26:36.348Z,2.53
2024-01-26T17:29:03.903Z,2.20
2024-01-26T17:31:31.234Z,3.80
2024-01-26T17:33:59.288Z,2.88
2024-01-26T17:36:26.570Z,2.38
2024-01-26T17:38:53.884Z,2.08
2024-01-26T17:41:21.135Z,2.20
2024-01-26T17:43:49.113Z,2.72
2024-01-26T17:46:16.348Z,3.00
2024-01-26T17:48:43.834Z,4.22
2024-01-26T17:51:11.073Z,2.72
2024-01-26T17:53:38.259Z,5.65
2024-01-26T17:56:08.891Z,2.08
2024-01-26T17:58:36.569Z,2.35
2024-01-26T18:01:04.013Z,1.92
2024-01-26T18:03:31.481Z,3.90
2024-01-26T18:06:00.676Z,2.97
2024-01-26T18:08:28.083Z,5.40
2024-01-26T18:10:55.388Z,3.90
2024-01-26T18:13:22.502Z,2.88
2024-01-26T18:15:49.637Z,3.20
2024-01-26T18:18:19.605Z,2.30
2024-01-26T18:20:47.923Z,2.13
2024-01-26T18:23:15.105Z,3.65
2024-01-26T18:25:42.213Z,3.65
2024-01-26T18:28:09.558Z,3.20
2024-01-26T18:30:36.734Z,3.17
2024-01-26T18:33:04.437Z,3.22
2024-01-26T18:35:31.727Z,3.10
2024-01-26T18:37:58.999Z,3.55
2024-01-26T18:40:26.204Z,3.03
2024-01-26T18:42:53.290Z,3.33
2024-01-26T18:45:20.607Z,2.72
2024-01-26T18:47:48.208Z,2.50
2024-01-26T18:50:15.762Z,2.78
2024-01-26T18:52:43.100Z,2.40
2024-01-26T18:55:10.801Z,3.42
2024-01-26T18:57:38.318Z,2.83
2024-01-26T19:00:09.418Z,4.63
2024-01-26T19:02:38.026Z,2.78
2024-01-26T19:05:10.865Z,3.42
2024-01-26T19:07:40.170Z,2.28
2024-01-26T19:10:07.814Z,3.42
2024-01-26T19:12:35.430Z,2.15
2024-01-26T19:15:03.134Z,2.58
2024-01-26T19:17:30.839Z,2.80
2024-01-26T19:19:58.106Z,4.28
2024-01-26T19:22:25.905Z,2.17
2024-01-26T19:24:53.034Z,2.33
2024-01-26T19:27:20.489Z,3.17
2024-01-26T19:29:47.720Z,2.05
2024-01-26T19:32:14.849Z,2.72
2024-01-26T19:34:42.944Z,3.75
2024-01-26T19:37:11.118Z,2.75
2024-01-26T19:39:38.127Z,3.38
2024-01-26T19:42:05.448Z,4.38
2024-01-26T19:44:32.488Z,2.53
2024-01-26T19:47:00.081Z,2.53
2024-01-26T19:49:27.378Z,3.60
2024-01-26T19:51:54.538Z,3.08
2024-01-26T19:54:21.774Z,3.10
2024-01-26T19:56:49.041Z,3.47
2024-01-26T19:59:16.105Z,2.78
2024-01-26T20:01:43.525Z,3.90
2024-01-26T20:04:11.096Z,4.05
2024-01-26T20:06:39.101Z,3.80
2024-01-26T20:09:06.432Z,2.85
2024-01-26T20:11:36.053Z,3.33
2024-01-26T20:14:03.238Z,4.18
2024-01-26T20:16:30.537Z,2.58
2024-01-26T20:18:57.781Z,3.63
2024-01-26T20:21:25.021Z,2.72
2024-01-26T20:23:52.578Z,2.58
2024-01-26T20:26:21.019Z,3.17
2024-01-26T20:28:49.435Z,3.03
2024-01-26T20:31:18.128Z,3.40
2024-01-26T20:33:45.967Z,4.90
2024-01-26T20:36:14.674Z,2.63
2024-01-26T20:38:42.209Z,2.65
2024-01-26T20:41:10.554Z,2.88
2024-01-26T20:43:38.373Z,2.45
2024-01-26T20:46:11.682Z,2.60
2024-01-26T20:48:39.160Z,3.47
2024-01-26T20:51:06.572Z,2.88
2024-01-26T20:53:33.871Z,4.35
2024-01-26T20:56:01.048Z,3.17
2024-01-26T20:58:31.023Z,3.38
2024-01-26T21:00:58.248Z,3.35
2024-01-26T21:03:25.724Z,3.58
2024-01-26T21:05:52.979Z,2.50
2024-01-26T21:08:20.711Z,2.92
2024-01-26T21:10:49.812Z,2.70
2024-01-26T21:13:17.830Z,4.75
2024-01-26T21:15:46.026Z,4.30
2024-01-26T21:18:16.542Z,2.75
2024-01-26T21:20:43.839Z,4.00
2024-01-26T21:23:11.305Z,2.50
2024-01-26T21:25:38.613Z,3.15
2024-01-26T21:28:06.327Z,2.83
2024-01-26T21:30:33.616Z,3.28
2024-01-26T21:33:01.077Z,3.40
2024-01-26T21:35:28.692Z,4.38
2024-01-26T21:37:58.564Z,3.83
2024-01-26T21:40:25.804Z,2.67
2024-01-26T21:42:53.611Z,3.10
2024-01-26T21:45:21.160Z,2.63
2024-01-26T21:47:48.506Z,2.85
2024-01-26T21:50:17.347Z,4.85
2024-01-26T21:52:44.804Z,3.03
2024-01-26T21:55:12.294Z,2.80
2024-01-26T21:57:40.153Z,2.70
2024-01-26T22:00:08.529Z,2.70
2024-01-26T22:02:35.776Z,4.38
2024-01-26T22:05:03.168Z,3.00
2024-01-26T22:07:30.474Z,3.00
2024-01-26T22:09:59.118Z,4.03
2024-01-26T22:12:26.601Z,3.08
2024-01-26T22:14:54.389Z,3.97
2024-01-26T22:17:21.433Z,3.83
2024-01-26T22:19:49.012Z,3.30
2024-01-26T22:22:16.707Z,4.53
2024-01-26T22:24:44.171Z,4.07
2024-01-26T22:27:11.576Z,3.33
2024-01-26T22:29:38.686Z,3.20
2024-01-26T22:32:06.380Z,3.20
2024-01-26T22:34:33.630Z,5.88
2024-01-26T22:37:00.825Z,4.80
2024-01-26T22:39:28.209Z,4.20
2024-01-26T22:41:56.662Z,3.13
2024-01-26T22:44:23.950Z,5.15
2024-01-26T22:46:51.280Z,4.18
2024-01-26T22:49:22.002Z,3.75
2024-01-26T22:51:49.601Z,5.18
2024-01-26T22:54:17.104Z,3.35
2024-01-26T22:56:44.220Z,3.55
2024-01-26T22:59:11.791Z,3.13
2024-01-26T23:01:38.928Z,4.38
2024-01-26T23:04:06.762Z,3.55
2024-01-26T23:06:34.185Z,3.03
2024-01-26T23:09:01.451Z,4.50
2024-01-26T23:11:30.775Z,3.17
2024-01-26T23:13:57.838Z,3.55
2024-01-26T23:16:24.984Z,3.83
2024-01-26T23:18:53.027Z,4.00
2024-01-26T23:21:20.524Z,2.90
2024-01-26T23:23:47.965Z,3.83
2024-01-26T23:26:15.285Z,4.35
2024-01-26T23:28:43.563Z,3.50
2024-01-26T23:31:11.245Z,3.65
2024-01-26T23:33:39.524Z,4.38
2024-01-26T23:36:08.012Z,3.15
2024-01-26T23:38:35.663Z,4.28
2024-01-26T23:41:02.709Z,2.88
2024-01-26T23:43:29.790Z,3.15
2024-01-26T23:45:56.947Z,3.60
2024-01-26T23:48:24.237Z,3.63
2024-01-26T23:50:51.552Z,5.03
2024-01-26T23:53:18.657Z,3.20
2024-01-26T23:55:47.270Z,4.55
2024-01-26T23:58:15.291Z,3.83
